createdAt,value
2022-10-09T00:04:36.716Z,102013.13
2022-10-09T00:09:38.887Z,102024.41
2022-10-09T00:14:41.041Z,102030.75
2022-10-09T00:19:44.217Z,102029.47
2022-10-09T00:24:45.940Z,102032.97
2022-10-09T00:29:48.165Z,102035.50
2022-10-09T00:34:52.206Z,102043.41
2022-10-09T00:39:54.260Z,102052.44
2022-10-09T00:44:58.298Z,102047.84
2022-10-09T00:50:05.192Z,102062.16
2022-10-09T00:55:08.358Z,102066.81
2022-10-09T01:00:13.447Z,102063.88
2022-10-09T01:05:17.263Z,102069.97
2022-10-09T01:10:28.246Z,102070.25
2022-10-09T01:15:35.628Z,102076.53
2022-10-09T01:20:46.834Z,102081.09
2022-10-09T01:26:03.442Z,102081.09
2022-10-09T01:31:07.924Z,102088.66
2022-10-09T01:36:10.703Z,102087.25
2022-10-09T01:41:12.828Z,102091.47
2022-10-09T01:46:22.329Z,102096.53
2022-10-09T01:51:28.860Z,102102.53
2022-10-09T01:56:35.072Z,102099.22
2022-10-09T02:01:40.002Z,102097.91
2022-10-09T02:06:43.165Z,102103.94
2022-10-09T02:11:51.580Z,102101.63
2022-10-09T02:17:01.782Z,102104.66
2022-10-09T02:22:10.497Z,102105.13
2022-10-09T02:27:14.268Z,102103.25
2022-10-09T02:32:17.959Z,102108.47
2022-10-09T02:37:20.166Z,102108.16
2022-10-09T02:42:21.839Z,102115.84
2022-10-09T02:47:25.119Z,102111.97
2022-10-09T02:52:27.283Z,102109.97
2022-10-09T02:57:29.159Z,102122.06
2022-10-09T03:02:32.388Z,102126.06
2022-10-09T03:07:34.729Z,102118.25
2022-10-09T03:12:36.795Z,102122.28
2022-10-09T03:17:40.644Z,102133.31
2022-10-09T03:22:42.753Z,102136.88
2022-10-09T03:27:44.832Z,102139.94
2022-10-09T03:32:48.359Z,102135.25
2022-10-09T03:37:50.518Z,102148.00
2022-10-09T03:42:52.459Z,102147.78
2022-10-09T03:47:55.973Z,102150.34
2022-10-09T03:52:58.008Z,102159.44
2022-10-09T03:57:59.804Z,102150.50
2022-10-09T04:03:03.459Z,102157.91
2022-10-09T04:08:06.518Z,102161.63
2022-10-09T04:13:08.184Z,102157.81
2022-10-09T04:18:11.517Z,102166.75
2022-10-09T04:23:13.654Z,102173.91
2022-10-09T04:28:15.901Z,102177.06
2022-10-09T04:33:19.450Z,102187.56
2022-10-09T04:38:22.349Z,102188.09
2022-10-09T04:43:24.048Z,102182.41
2022-10-09T04:48:27.557Z,102184.69
2022-10-09T04:53:29.640Z,102183.91
2022-10-09T04:58:32.487Z,102184.75
2022-10-09T05:03:35.977Z,102178.44
2022-10-09T05:08:38.680Z,102190.63
2022-10-09T05:13:42.296Z,102184.50
2022-10-09T05:18:47.533Z,102188.91
2022-10-09T05:23:49.458Z,102190.88
2022-10-09T05:28:51.748Z,102192.56
2022-10-09T05:33:56.188Z,102209.09
2022-10-09T05:38:57.943Z,102212.38
2022-10-09T05:44:01.754Z,102211.56
2022-10-09T05:49:05.932Z,102226.59
2022-10-09T05:54:07.628Z,102241.69
2022-10-09T05:59:11.043Z,102238.44
2022-10-09T06:04:16.462Z,102242.47
2022-10-09T06:09:21.541Z,102239.91
2022-10-09T06:14:23.750Z,102240.66
2022-10-09T06:19:27.072Z,102245.72
2022-10-09T06:24:29.696Z,102249.69
2022-10-09T06:29:31.742Z,102259.53
2022-10-09T06:34:35.293Z,102269.69
2022-10-09T06:39:37.477Z,102275.28
2022-10-09T06:44:39.602Z,102280.41
2022-10-09T06:49:43.466Z,102288.38
2022-10-09T06:54:45.505Z,102293.25
2022-10-09T06:59:47.720Z,102300.66
2022-10-09T07:04:51.213Z,102292.81
2022-10-09T07:09:53.501Z,102305.84
2022-10-09T07:14:55.130Z,102296.13
2022-10-09T07:19:58.603Z,102288.00
2022-10-09T07:25:00.567Z,102298.47
2022-10-09T07:30:02.818Z,102307.78
2022-10-09T07:35:07.456Z,102306.59
2022-10-09T07:40:10.217Z,102304.44
2022-10-09T07:45:12.086Z,102306.72
2022-10-09T07:50:15.819Z,102314.13
2022-10-09T07:55:18.071Z,102315.41
2022-10-09T08:00:20.166Z,102326.75
2022-10-09T08:05:23.479Z,102319.47
2022-10-09T08:10:26.214Z,102326.09
2022-10-09T08:15:28.672Z,102326.50
2022-10-09T08:20:32.007Z,102323.31
2022-10-09T08:25:34.727Z,102319.28
2022-10-09T08:30:36.941Z,102341.94
2022-10-09T08:35:40.363Z,102337.88
2022-10-09T08:40:53.804Z,102332.97
2022-10-09T08:46:01.067Z,102336.91
2022-10-09T08:51:12.767Z,102333.72
2022-10-09T08:56:15.772Z,102332.16
2022-10-09T09:01:26.123Z,102329.88
2022-10-09T09:06:38.967Z,102329.97
2022-10-09T09:11:49.689Z,102339.25
2022-10-09T09:17:09.222Z,102331.59
2022-10-09T09:22:15.440Z,102331.72
2022-10-09T09:27:23.537Z,102320.28
2022-10-09T09:32:29.803Z,102325.69
2022-10-09T09:37:34.088Z,102325.72
2022-10-09T09:42:36.489Z,102321.16
2022-10-09T09:47:43.956Z,102321.38
2022-10-09T09:52:47.480Z,102321.06
2022-10-09T09:57:49.563Z,102318.69
2022-10-09T10:03:04.256Z,102311.03
2022-10-09T10:08:27.795Z,102317.53
2022-10-09T10:13:34.853Z,102309.84
2022-10-09T10:18:40.175Z,102304.50
2022-10-09T10:23:50.640Z,102300.25
2022-10-09T10:29:00.399Z,102295.34
2022-10-09T10:34:14.494Z,102287.56
2022-10-09T10:39:27.308Z,102280.75
2022-10-09T10:44:41.261Z,102283.47
2022-10-09T10:49:43.432Z,102273.88
2022-10-09T10:54:55.027Z,102262.78
2022-10-09T11:00:01.626Z,102256.53
2022-10-09T11:05:17.334Z,102246.22
2022-10-09T11:10:28.089Z,102255.16
2022-10-09T11:15:36.870Z,102245.03
2022-10-09T11:20:54.207Z,102248.22
2022-10-09T11:26:07.955Z,102230.91
2022-10-09T11:31:13.566Z,102238.19
2022-10-09T11:36:20.204Z,102220.69
2022-10-09T11:41:24.146Z,102215.81
2022-10-09T11:46:35.765Z,102209.47
2022-10-09T11:51:48.286Z,102206.59
2022-10-09T11:56:59.841Z,102195.63
2022-10-09T12:02:21.773Z,102189.09
2022-10-09T12:07:30.576Z,102173.38
2022-10-09T12:12:34.913Z,102173.06
2022-10-09T12:17:46.714Z,102176.34
2022-10-09T12:23:21.285Z,102172.69
2022-10-09T12:28:25.185Z,102172.56
2022-10-09T12:33:34.342Z,102169.69
2022-10-09T12:38:37.002Z,102158.44
2022-10-09T12:43:45.141Z,102149.22
2022-10-09T12:48:47.240Z,102145.00
2022-10-09T12:53:50.856Z,102140.19
2022-10-09T12:58:55.391Z,102142.47
2022-10-09T13:03:59.478Z,102140.47
2022-10-09T13:09:04.403Z,102125.28
2022-10-09T13:14:23.099Z,102121.72
2022-10-09T13:19:27.641Z,102118.13
2022-10-09T13:24:29.743Z,102123.22
2022-10-09T13:29:33.671Z,102111.19
2022-10-09T13:34:35.614Z,102106.75
2022-10-09T13:39:38.096Z,102091.38
2022-10-09T13:44:41.881Z,102102.53
2022-10-09T13:49:43.644Z,102100.03
2022-10-09T13:54:45.663Z,102106.06
2022-10-09T13:59:48.861Z,102084.34
2022-10-09T14:04:50.644Z,102094.72
2022-10-09T14:09:52.542Z,102086.19
2022-10-09T14:14:55.889Z,102077.50
2022-10-09T14:19:58.394Z,102075.72
2022-10-09T14:25:00.611Z,102073.25
2022-10-09T14:30:04.274Z,102065.25
2022-10-09T14:35:06.830Z,102069.50
2022-10-09T14:40:09.300Z,102058.22
2022-10-09T14:45:12.574Z,102053.06
2022-10-09T14:50:14.455Z,102053.06
2022-10-09T14:55:16.289Z,102041.44
2022-10-09T15:00:19.811Z,102049.13
2022-10-09T15:05:21.793Z,102041.78
2022-10-09T15:10:24.599Z,102031.75
2022-10-09T15:15:32.519Z,102034.75
2022-10-09T15:20:35.387Z,102034.97
2022-10-09T15:25:37.123Z,102031.34
2022-10-09T15:30:45.169Z,102026.00
2022-10-09T15:35:47.191Z,102017.19
2022-10-09T15:40:52.605Z,102006.53
2022-10-09T15:46:03.943Z,102002.25
2022-10-09T15:51:06.240Z,102004.13
2022-10-09T15:56:09.586Z,102007.94
2022-10-09T16:01:15.250Z,102018.91
2022-10-09T16:06:20.705Z,102006.72
2022-10-09T16:11:25.290Z,101995.53
2022-10-09T16:16:30.244Z,101994.06
2022-10-09T16:21:32.798Z,101999.44
2022-10-09T16:26:34.493Z,101990.59
2022-10-09T16:31:38.186Z,101981.78
2022-10-09T16:36:39.909Z,101998.66
2022-10-09T16:41:42.191Z,102000.44
2022-10-09T16:46:45.369Z,101999.50
2022-10-09T16:51:47.420Z,101998.44
2022-10-09T16:56:49.235Z,102005.44
2022-10-09T17:01:52.812Z,102001.72
2022-10-09T17:06:54.459Z,101994.56
2022-10-09T17:11:56.263Z,101989.97
2022-10-09T17:16:59.766Z,101987.16
2022-10-09T17:22:02.802Z,101974.59
2022-10-09T17:27:04.809Z,101982.44
2022-10-09T17:32:07.786Z,101983.25
2022-10-09T17:37:09.587Z,101982.25
2022-10-09T17:42:11.488Z,101979.50
2022-10-09T17:47:15.075Z,101978.56
2022-10-09T17:52:16.878Z,101975.78
2022-10-09T17:57:18.990Z,101977.53
2022-10-09T18:02:22.240Z,101969.41
2022-10-09T18:07:24.714Z,101971.06
2022-10-09T18:12:26.682Z,101960.28
2022-10-09T18:17:30.032Z,101962.00
2022-10-09T18:22:32.122Z,101960.84
2022-10-09T18:27:34.383Z,101951.03
2022-10-09T18:32:37.621Z,101953.56
2022-10-09T18:37:39.808Z,101947.16
2022-10-09T18:42:42.430Z,101950.47
2022-10-09T18:47:46.243Z,101952.97
2022-10-09T18:52:48.787Z,101947.38
2022-10-09T18:57:51.267Z,101942.00
2022-10-09T19:02:55.407Z,101942.78
2022-10-09T19:07:57.866Z,101940.97
2022-10-09T19:12:59.869Z,101924.19
2022-10-09T19:18:03.887Z,101918.03
2022-10-09T19:23:06.908Z,101920.66
2022-10-09T19:28:09.045Z,101910.88
2022-10-09T19:33:13.003Z,101909.00
2022-10-09T19:38:15.527Z,101906.16
2022-10-09T19:43:18.872Z,101905.13
2022-10-09T19:48:21.852Z,101912.28
2022-10-09T19:53:24.051Z,101898.13
2022-10-09T19:58:25.853Z,101898.22
2022-10-09T20:03:29.389Z,101889.41
2022-10-09T20:08:32.032Z,101888.63
2022-10-09T20:13:36.335Z,101889.72
2022-10-09T20:18:40.929Z,101882.81
2022-10-09T20:23:43.212Z,101882.84
2022-10-09T20:28:46.596Z,101878.28
2022-10-09T20:33:50.556Z,101886.25
2022-10-09T20:38:54.761Z,101878.41
2022-10-09T20:43:58.556Z,101877.31
2022-10-09T20:49:02.639Z,101876.22
2022-10-09T20:54:05.950Z,101876.00
2022-10-09T20:59:07.897Z,101882.13
2022-10-09T21:04:11.597Z,101868.84
2022-10-09T21:09:14.274Z,101874.91
2022-10-09T21:14:17.135Z,101870.44
2022-10-09T21:19:20.821Z,101857.13
2022-10-09T21:24:23.035Z,101853.53
2022-10-09T21:29:25.053Z,101856.94
2022-10-09T21:34:28.402Z,101848.97
2022-10-09T21:39:30.978Z,101839.13
2022-10-09T21:44:33.011Z,101845.94
2022-10-09T21:49:36.322Z,101838.75
2022-10-09T21:54:38.278Z,101833.25
2022-10-09T21:59:40.604Z,101840.94
2022-10-09T22:04:43.652Z,101834.41
2022-10-09T22:09:45.358Z,101824.38
2022-10-09T22:14:47.534Z,101830.38
2022-10-09T22:19:50.937Z,101824.66
2022-10-09T22:24:53.437Z,101823.59
2022-10-09T22:29:55.414Z,101818.88
2022-10-09T22:34:58.946Z,101808.44
2022-10-09T22:40:01.153Z,101801.41
2022-10-09T22:45:03.714Z,101799.50
2022-10-09T22:50:08.269Z,101799.28
2022-10-09T22:55:10.394Z,101782.09
2022-10-09T23:00:13.841Z,101778.75
2022-10-09T23:05:17.056Z,101785.41
2022-10-09T23:10:19.471Z,101772.72
2022-10-09T23:15:22.013Z,101769.75
2022-10-09T23:20:25.575Z,101767.03
2022-10-09T23:25:27.219Z,101769.00
2022-10-09T23:30:30.488Z,101766.19
2022-10-09T23:35:33.464Z,101762.09
2022-10-09T23:40:35.648Z,101751.31
2022-10-09T23:45:40.283Z,101761.25
2022-10-09T23:50:43.648Z,101750.63
2022-10-09T23:55:45.783Z,101749.75
